createdAt,value
2022-11-30T00:10:02.031Z,98.89
2022-11-30T00:20:09.718Z,99.17
2022-11-30T00:30:17.418Z,98.95
2022-11-30T00:40:23.137Z,99.10
2022-11-30T00:50:28.812Z,99.08
2022-11-30T01:00:34.511Z,99.53
2022-11-30T01:10:41.825Z,99.33
2022-11-30T01:20:47.456Z,99.43
2022-11-30T01:31:00.813Z,99.64
2022-11-30T01:41:08.004Z,99.61
2022-11-30T01:51:13.638Z,99.69
2022-11-30T02:01:19.391Z,99.92
2022-11-30T02:11:28.319Z,99.98
2022-11-30T02:21:43.056Z,99.97
2022-11-30T02:31:56.365Z,100.00
2022-11-30T02:42:02.117Z,100.00
2022-11-30T02:52:10.354Z,100.00
2022-11-30T03:02:16.137Z,100.00
2022-11-30T03:12:21.802Z,100.00
2022-11-30T03:22:27.680Z,100.00
2022-11-30T03:32:33.245Z,100.00
2022-11-30T03:42:38.926Z,100.00
2022-11-30T03:52:44.607Z,100.00
2022-11-30T04:02:50.417Z,100.00
2022-11-30T04:12:56.134Z,100.00
2022-11-30T04:23:02.549Z,100.00
2022-11-30T04:33:08.636Z,100.00
2022-11-30T04:43:14.930Z,100.00
2022-11-30T04:53:19.112Z,100.00
2022-11-30T05:03:24.824Z,100.00
2022-11-30T05:13:30.705Z,100.00
2022-11-30T05:23:36.422Z,100.00
2022-11-30T05:33:42.284Z,100.00
2022-11-30T05:43:48.163Z,100.00
2022-11-30T05:53:54.104Z,100.00
2022-11-30T06:04:03.517Z,100.00
2022-11-30T06:14:12.008Z,100.00
2022-11-30T06:24:17.781Z,100.00
2022-11-30T06:34:23.648Z,100.00
2022-11-30T06:44:29.274Z,100.00
2022-11-30T06:54:35.146Z,100.00
2022-11-30T07:04:40.960Z,99.99
2022-11-30T07:14:46.931Z,100.00
2022-11-30T07:25:10.122Z,99.88
2022-11-30T07:35:15.922Z,99.64
2022-11-30T07:45:21.740Z,99.78
2022-11-30T07:55:27.444Z,99.77
2022-11-30T08:05:33.203Z,99.73
2022-11-30T08:15:39.177Z,99.53
2022-11-30T08:25:47.814Z,99.33
2022-11-30T08:35:53.687Z,99.11
2022-11-30T08:45:59.597Z,98.80
2022-11-30T08:56:08.823Z,98.85
2022-11-30T09:06:16.781Z,98.52
2022-11-30T09:16:23.160Z,98.30
2022-11-30T09:26:29.249Z,97.68
2022-11-30T09:36:36.692Z,97.44
2022-11-30T09:46:48.749Z,97.49
2022-11-30T09:56:54.939Z,97.30
2022-11-30T10:07:11.032Z,97.03
2022-11-30T10:17:23.876Z,96.95
2022-11-30T10:27:43.264Z,96.30
2022-11-30T10:37:51.433Z,96.72
2022-11-30T10:48:04.261Z,96.37
2022-11-30T10:58:20.720Z,95.89
2022-11-30T11:08:28.311Z,96.24
2022-11-30T11:18:35.180Z,95.30
2022-11-30T11:28:47.744Z,95.07
2022-11-30T11:38:53.565Z,94.76
2022-11-30T11:49:02.901Z,94.96
2022-11-30T11:59:19.065Z,94.88
2022-11-30T12:09:30.590Z,94.73
2022-11-30T12:19:43.988Z,94.37
2022-11-30T12:30:02.504Z,94.20
2022-11-30T12:40:24.601Z,94.07
2022-11-30T12:50:47.121Z,93.82
2022-11-30T13:01:09.229Z,93.78
2022-11-30T13:11:19.541Z,93.29
2022-11-30T13:21:31.536Z,93.01
2022-11-30T13:31:42.324Z,92.67
2022-11-30T13:41:50.609Z,92.97
2022-11-30T13:52:21.402Z,92.81
2022-11-30T14:02:54.256Z,92.94
2022-11-30T14:13:03.083Z,92.91
2022-11-30T14:23:13.182Z,92.77
2022-11-30T14:33:25.188Z,92.63
2022-11-30T14:43:31.435Z,92.31
2022-11-30T14:53:45.406Z,92.48
2022-11-30T15:03:53.804Z,92.43
2022-11-30T15:14:11.691Z,92.34
2022-11-30T15:24:18.075Z,92.04
2022-11-30T15:34:32.975Z,92.14
2022-11-30T15:44:45.639Z,91.70
2022-11-30T15:54:55.216Z,92.22
2022-11-30T16:05:23.745Z,92.60
2022-11-30T16:15:35.038Z,92.17
2022-11-30T16:25:41.104Z,92.27
2022-11-30T16:35:54.490Z,92.15
2022-11-30T16:46:02.875Z,91.87
2022-11-30T16:56:13.122Z,92.01
2022-11-30T17:06:22.060Z,91.91
2022-11-30T17:16:28.241Z,92.09
2022-11-30T17:26:34.749Z,92.28
2022-11-30T17:36:40.893Z,92.40
2022-11-30T17:46:58.592Z,92.56
2022-11-30T17:57:05.248Z,92.50
2022-11-30T18:07:14.097Z,92.69
2022-11-30T18:17:23.088Z,92.71
2022-11-30T18:27:32.233Z,93.00
2022-11-30T18:37:37.525Z,92.91
2022-11-30T18:47:44.810Z,92.76
2022-11-30T18:57:52.098Z,92.67
2022-11-30T19:07:58.752Z,92.69
2022-11-30T19:18:05.850Z,92.56
2022-11-30T19:28:14.728Z,92.68
2022-11-30T19:38:24.915Z,92.75
2022-11-30T19:48:31.547Z,92.87
2022-11-30T19:58:51.506Z,92.61
2022-11-30T20:09:00.472Z,92.67
2022-11-30T20:19:26.750Z,92.59
2022-11-30T20:29:43.103Z,92.81
2022-11-30T20:40:12.206Z,92.63
2022-11-30T20:50:38.014Z,92.61
2022-11-30T21:00:51.086Z,92.72
2022-11-30T21:11:06.153Z,92.62
2022-11-30T21:21:33.727Z,92.67
2022-11-30T21:31:45.327Z,92.82
2022-11-30T21:42:10.880Z,92.82
2022-11-30T21:52:17.639Z,92.66
2022-11-30T22:02:43.648Z,92.64
2022-11-30T22:13:00.819Z,92.42
2022-11-30T22:23:14.878Z,92.37
2022-11-30T22:33:41.707Z,92.16
2022-11-30T22:43:49.216Z,91.95
2022-11-30T22:54:05.267Z,92.07
2022-11-30T23:04:14.596Z,91.66
2022-11-30T23:14:40.341Z,91.31
2022-11-30T23:25:02.260Z,91.23
2022-11-30T23:35:28.065Z,91.17
2022-11-30T23:45:34.776Z,91.25
2022-11-30T23:56:05.548Z,91.01
